Terminal Aerodrome Forecast
Issued by NWS

Current Version | Previous Version | Graphics & Text | Print | Product List | Glossary On
Versions: 1 2 3 4 5 6 7 8 9 10 11 12 13 14 15 16 17 18 19 20 21 22 23 24 25
000
FTUS41 KRLX 280100 AAA
TAFCKB
TAF AMD
KCKB 280100Z 2801/2824 31006KT P6SM -SN OVC025
      TEMPO 2801/2804 4SM -SN BKN015
     FM280500 34007KT P6SM BKN030
     FM281400 32007KT P6SM BKN035
     FM281700 31007KT P6SM SCT060
     FM282000 30009KT P6SM SKC=

USA.gov is the U.S. government's official web portal to all federal, state and local government web resources and services.